createdAt,value
2023-01-09T00:01:51.319Z,16.20
2023-01-09T00:04:19.936Z,15.70
2023-01-09T00:06:54.224Z,14.70
2023-01-09T00:09:24.391Z,15.00
2023-01-09T00:11:53.040Z,16.00
2023-01-09T00:14:22.996Z,15.00
2023-01-09T00:16:51.311Z,15.30
2023-01-09T00:19:19.617Z,15.00
2023-01-09T00:21:47.827Z,14.30
2023-01-09T00:24:16.079Z,15.30
2023-01-09T00:26:44.256Z,16.20
2023-01-09T00:29:12.493Z,15.90
2023-01-09T00:31:40.560Z,15.40
2023-01-09T00:34:10.690Z,15.70
2023-01-09T00:36:38.949Z,16.20
2023-01-09T00:39:06.994Z,14.70
2023-01-09T00:41:40.331Z,17.50
2023-01-09T00:44:14.770Z,15.90
2023-01-09T00:46:48.768Z,15.80
2023-01-09T00:49:17.893Z,13.90
2023-01-09T00:51:47.174Z,16.40
2023-01-09T00:54:17.989Z,15.50
2023-01-09T00:56:46.503Z,16.20
2023-01-09T00:59:14.872Z,16.40
2023-01-09T01:01:43.112Z,14.60
2023-01-09T01:04:29.768Z,15.80
2023-01-09T01:07:16.668Z,15.10
2023-01-09T01:09:44.777Z,17.10
2023-01-09T01:12:13.178Z,15.20
2023-01-09T01:14:41.462Z,13.80
2023-01-09T01:17:09.698Z,15.90
2023-01-09T01:19:38.020Z,14.40
2023-01-09T01:22:06.189Z,14.90
2023-01-09T01:24:34.362Z,14.00
2023-01-09T01:27:02.811Z,12.90
2023-01-09T01:29:30.908Z,12.40
2023-01-09T01:31:59.065Z,12.60
2023-01-09T01:34:28.901Z,10.90
2023-01-09T01:36:56.934Z,12.50
2023-01-09T01:39:25.036Z,12.90
2023-01-09T01:41:53.315Z,11.20
2023-01-09T01:44:59.063Z,10.70
2023-01-09T01:47:34.129Z,11.50
2023-01-09T01:50:08.230Z,12.60
2023-01-09T01:52:37.538Z,9.90
2023-01-09T01:55:08.515Z,11.20
2023-01-09T01:57:41.053Z,11.20
2023-01-09T02:00:12.071Z,10.30
2023-01-09T02:02:40.494Z,11.40
2023-01-09T02:05:09.429Z,11.00
2023-01-09T02:07:37.550Z,12.20
2023-01-09T02:10:06.437Z,12.20
2023-01-09T02:12:34.659Z,10.60
2023-01-09T02:15:12.297Z,10.10
2023-01-09T02:17:58.885Z,10.20
2023-01-09T02:20:36.273Z,12.70
2023-01-09T02:23:07.292Z,12.40
2023-01-09T02:26:13.052Z,12.60
2023-01-09T02:29:16.713Z,13.90
2023-01-09T02:32:07.943Z,12.70
2023-01-09T02:34:54.970Z,12.60
2023-01-09T02:37:34.929Z,11.70
2023-01-09T02:40:33.733Z,14.70
2023-01-09T02:43:03.568Z,12.30
2023-01-09T02:45:32.059Z,12.00
2023-01-09T02:48:00.377Z,11.40
2023-01-09T02:50:39.796Z,11.40
2023-01-09T02:53:40.976Z,12.60
2023-01-09T02:56:37.099Z,10.90
2023-01-09T02:59:32.237Z,11.60
2023-01-09T03:02:00.520Z,11.60
2023-01-09T03:05:00.712Z,11.30
2023-01-09T03:07:42.023Z,12.00
2023-01-09T03:10:23.551Z,11.20
2023-01-09T03:12:54.351Z,11.80
2023-01-09T03:15:27.137Z,10.00
2023-01-09T03:17:55.969Z,13.00
2023-01-09T03:20:27.926Z,12.50
2023-01-09T03:22:58.581Z,12.40
2023-01-09T03:25:29.107Z,12.40
2023-01-09T03:27:59.924Z,12.50
2023-01-09T03:30:30.449Z,11.20
2023-01-09T03:32:58.848Z,12.40
2023-01-09T03:35:27.681Z,13.80
2023-01-09T03:37:56.115Z,13.00
2023-01-09T03:40:24.282Z,13.80
2023-01-09T03:42:52.547Z,12.10
2023-01-09T03:45:20.624Z,12.60
2023-01-09T03:47:48.820Z,13.80
2023-01-09T03:50:17.186Z,12.30
2023-01-09T03:52:45.469Z,12.90
2023-01-09T03:55:15.512Z,11.60
2023-01-09T03:57:43.922Z,12.40
2023-01-09T04:00:12.761Z,13.60
2023-01-09T04:02:41.315Z,13.90
2023-01-09T04:05:10.010Z,13.80
2023-01-09T04:07:38.276Z,12.80
2023-01-09T04:10:08.962Z,13.90
2023-01-09T04:12:37.074Z,12.50
2023-01-09T04:15:05.681Z,13.80
2023-01-09T04:17:33.779Z,14.30
2023-01-09T04:20:01.896Z,12.50
2023-01-09T04:22:31.457Z,13.00
2023-01-09T04:24:59.491Z,12.50
2023-01-09T04:27:27.953Z,12.70
2023-01-09T04:29:56.225Z,12.70
2023-01-09T04:32:24.399Z,13.10
2023-01-09T04:34:52.588Z,14.30
2023-01-09T04:37:21.363Z,14.30
2023-01-09T04:39:51.501Z,15.60
2023-01-09T04:42:19.544Z,11.60
2023-01-09T04:44:47.615Z,13.90
2023-01-09T04:47:16.004Z,12.60
2023-01-09T04:49:44.168Z,14.10
2023-01-09T04:52:12.645Z,13.40
2023-01-09T04:54:41.031Z,13.50
2023-01-09T04:57:09.199Z,14.70
2023-01-09T04:59:37.314Z,13.30
2023-01-09T05:02:05.483Z,13.60
2023-01-09T05:04:34.304Z,14.70
2023-01-09T05:07:02.910Z,14.40
2023-01-09T05:09:31.622Z,15.00
2023-01-09T05:12:01.826Z,15.30
2023-01-09T05:14:30.408Z,14.40
2023-01-09T05:16:58.390Z,13.80
2023-01-09T05:19:26.646Z,14.10
2023-01-09T05:21:54.843Z,14.90
2023-01-09T05:24:22.985Z,15.10
2023-01-09T05:26:51.436Z,14.90
2023-01-09T05:29:19.901Z,13.40
2023-01-09T05:31:48.305Z,13.20
2023-01-09T05:34:16.368Z,12.30
2023-01-09T05:36:44.454Z,11.80
2023-01-09T05:39:12.819Z,13.90
2023-01-09T05:41:40.951Z,13.90
2023-01-09T05:44:09.151Z,14.70
2023-01-09T05:46:37.368Z,13.90
2023-01-09T05:49:05.412Z,14.20
2023-01-09T05:51:33.714Z,13.50
2023-01-09T05:54:03.149Z,14.00
2023-01-09T05:56:31.271Z,14.10
2023-01-09T05:58:59.576Z,13.00
2023-01-09T06:01:27.824Z,13.90
2023-01-09T06:03:56.083Z,13.70
2023-01-09T06:06:24.413Z,13.10
2023-01-09T06:08:52.656Z,12.30
2023-01-09T06:11:20.936Z,14.00
2023-01-09T06:13:49.014Z,14.90
2023-01-09T06:16:17.445Z,16.80
2023-01-09T06:18:46.485Z,12.60
2023-01-09T06:21:15.116Z,13.40
2023-01-09T06:23:43.230Z,12.90
2023-01-09T06:26:11.508Z,13.60
2023-01-09T06:28:39.990Z,14.30
2023-01-09T06:31:08.468Z,12.70
2023-01-09T06:33:36.762Z,12.00
2023-01-09T06:36:05.525Z,12.20
2023-01-09T06:38:33.598Z,14.90
2023-01-09T06:41:01.752Z,12.90
2023-01-09T06:43:30.258Z,12.30
2023-01-09T06:45:58.571Z,12.20
2023-01-09T06:48:26.801Z,11.00
2023-01-09T06:50:55.129Z,13.20
2023-01-09T06:53:23.294Z,13.50
2023-01-09T06:55:51.586Z,13.80
2023-01-09T06:58:20.830Z,12.60
2023-01-09T07:00:49.709Z,13.90
2023-01-09T07:03:22.710Z,12.80
2023-01-09T07:05:51.292Z,13.10
2023-01-09T07:08:19.697Z,14.00
2023-01-09T07:10:48.139Z,12.30
2023-01-09T07:13:16.396Z,11.40
2023-01-09T07:15:44.461Z,10.30
2023-01-09T07:18:12.615Z,11.70
2023-01-09T07:20:41.652Z,11.70
2023-01-09T07:23:13.203Z,13.00
2023-01-09T07:25:45.259Z,12.00
2023-01-09T07:28:13.466Z,11.00
2023-01-09T07:30:41.471Z,12.30
2023-01-09T07:33:09.623Z,11.40
2023-01-09T07:35:38.159Z,12.00
2023-01-09T07:38:06.296Z,13.00
2023-01-09T07:40:34.810Z,13.00
2023-01-09T07:43:03.205Z,12.60
2023-01-09T07:45:31.467Z,11.60
2023-01-09T07:47:59.648Z,13.10
2023-01-09T07:50:27.945Z,15.00
2023-01-09T07:52:56.293Z,13.30
2023-01-09T07:55:24.663Z,11.70
2023-01-09T07:57:53.144Z,12.40
2023-01-09T08:00:21.851Z,13.00
2023-01-09T08:02:54.189Z,10.40
2023-01-09T08:05:22.888Z,11.70
2023-01-09T08:07:51.551Z,11.60
2023-01-09T08:10:20.472Z,11.40
2023-01-09T08:12:49.676Z,11.10
2023-01-09T08:15:18.150Z,12.20
2023-01-09T08:17:47.477Z,11.80
2023-01-09T08:20:17.482Z,12.90
2023-01-09T08:22:49.781Z,12.50
2023-01-09T08:25:18.511Z,11.70
2023-01-09T08:27:47.232Z,12.60
2023-01-09T08:30:16.924Z,12.90
2023-01-09T08:32:49.560Z,14.10
2023-01-09T08:35:18.039Z,14.20
2023-01-09T08:37:48.096Z,12.60
2023-01-09T08:40:17.727Z,13.40
2023-01-09T08:43:04.260Z,12.70
2023-01-09T08:45:51.822Z,12.10
2023-01-09T08:48:19.927Z,12.10
2023-01-09T08:50:48.681Z,11.60
2023-01-09T08:53:16.919Z,12.30
2023-01-09T08:55:45.127Z,13.60
2023-01-09T08:58:13.242Z,12.40
2023-01-09T09:00:41.784Z,12.40
2023-01-09T09:03:11.707Z,9.80
2023-01-09T09:05:39.920Z,12.80
2023-01-09T09:08:07.987Z,11.40
2023-01-09T09:10:36.154Z,12.30
2023-01-09T09:13:04.620Z,11.90
2023-01-09T09:15:34.555Z,11.70
2023-01-09T09:18:05.349Z,12.70
2023-01-09T09:20:36.589Z,11.70
2023-01-09T09:23:05.931Z,11.90
2023-01-09T09:25:35.410Z,11.30
2023-01-09T09:28:03.554Z,12.00
2023-01-09T09:30:31.625Z,11.60
2023-01-09T09:32:59.772Z,11.20
2023-01-09T09:35:28.645Z,10.70
2023-01-09T09:38:04.847Z,10.90
2023-01-09T09:40:51.662Z,11.30
2023-01-09T09:44:13.382Z,9.60
2023-01-09T09:46:50.776Z,10.80
2023-01-09T09:49:25.265Z,11.20
2023-01-09T09:52:04.171Z,10.80
2023-01-09T09:54:42.584Z,9.70
2023-01-09T09:57:17.307Z,11.90
2023-01-09T09:59:51.272Z,10.00
2023-01-09T10:02:28.254Z,11.00
2023-01-09T10:05:15.070Z,10.00
2023-01-09T10:07:48.530Z,11.10
2023-01-09T10:10:49.599Z,10.40
2023-01-09T10:13:38.969Z,12.30
2023-01-09T10:19:10.908Z,11.00
2023-01-09T10:21:51.280Z,11.40
2023-01-09T10:24:22.230Z,10.50
2023-01-09T10:26:54.357Z,12.40
2023-01-09T10:29:31.705Z,12.10
2023-01-09T10:32:35.052Z,14.00
2023-01-09T10:35:12.004Z,11.60
2023-01-09T10:37:47.385Z,10.70
2023-01-09T10:40:26.214Z,11.00
2023-01-09T10:43:14.021Z,11.90
2023-01-09T10:45:55.452Z,10.30
2023-01-09T10:48:38.097Z,11.40
2023-01-09T10:51:19.477Z,10.20
2023-01-09T10:53:56.022Z,9.90
2023-01-09T10:56:27.324Z,11.70
2023-01-09T10:58:56.971Z,11.00
2023-01-09T11:01:28.675Z,9.80
2023-01-09T11:04:01.820Z,10.80
2023-01-09T11:06:44.730Z,11.00
2023-01-09T11:09:15.195Z,11.20
2023-01-09T11:11:45.475Z,10.20
2023-01-09T11:14:27.835Z,12.00
2023-01-09T11:16:58.387Z,11.60
2023-01-09T11:19:27.726Z,11.40
2023-01-09T11:22:12.204Z,13.40
2023-01-09T11:24:40.383Z,11.90
2023-01-09T11:27:14.453Z,11.50
2023-01-09T11:29:43.460Z,13.70
2023-01-09T11:32:23.432Z,13.70
2023-01-09T11:34:51.612Z,13.50
2023-01-09T11:37:27.730Z,13.60
2023-01-09T11:39:59.152Z,14.10
2023-01-09T11:42:48.260Z,14.00
2023-01-09T11:45:18.791Z,13.10
2023-01-09T11:47:48.237Z,12.20
2023-01-09T11:50:27.071Z,12.30
2023-01-09T11:53:13.856Z,12.40
2023-01-09T11:55:43.537Z,12.20
2023-01-09T11:58:15.380Z,12.80
2023-01-09T12:01:11.295Z,12.90
2023-01-09T12:04:17.868Z,12.90
2023-01-09T12:07:10.224Z,11.00
2023-01-09T12:10:17.255Z,11.80
2023-01-09T12:13:14.359Z,14.10
2023-01-09T12:16:21.446Z,12.30
2023-01-09T12:18:49.751Z,11.00
2023-01-09T12:21:23.831Z,9.80
2023-01-09T12:24:42.694Z,9.80
2023-01-09T12:27:21.097Z,9.90
2023-01-09T12:30:16.035Z,9.90
2023-01-09T12:33:08.736Z,10.80
2023-01-09T12:35:45.733Z,10.50
2023-01-09T12:38:54.622Z,9.90
2023-01-09T12:41:23.261Z,9.00
2023-01-09T12:44:34.130Z,8.20
2023-01-09T12:47:09.133Z,9.50
2023-01-09T12:49:49.499Z,10.70
2023-01-09T12:52:32.518Z,12.00
2023-01-09T12:55:08.682Z,13.10
2023-01-09T12:57:42.586Z,11.60
2023-01-09T13:00:23.959Z,11.60
2023-01-09T13:03:12.887Z,11.90
2023-01-09T13:05:46.168Z,12.40
2023-01-09T13:08:32.114Z,12.00
2023-01-09T13:11:20.518Z,10.80
2023-01-09T13:14:06.768Z,10.50
2023-01-09T13:16:44.024Z,11.30
2023-01-09T13:19:27.951Z,12.60
2023-01-09T13:21:58.033Z,14.00
2023-01-09T13:24:47.445Z,12.70
2023-01-09T13:27:20.256Z,13.30
2023-01-09T13:29:55.698Z,11.40
2023-01-09T13:32:37.178Z,11.40
2023-01-09T13:35:13.012Z,10.40
2023-01-09T13:37:42.762Z,10.20
2023-01-09T13:40:20.806Z,10.10
2023-01-09T13:43:02.991Z,13.50
2023-01-09T13:45:37.124Z,13.10
2023-01-09T13:48:12.046Z,11.90
2023-01-09T13:50:42.324Z,11.30
2023-01-09T13:53:20.114Z,12.00
2023-01-09T13:55:57.641Z,13.50
2023-01-09T13:58:30.299Z,14.30
2023-01-09T14:01:04.814Z,16.70
2023-01-09T14:03:38.911Z,16.50
2023-01-09T14:06:13.266Z,17.10
2023-01-09T14:08:42.783Z,16.00
2023-01-09T14:11:19.849Z,15.00
2023-01-09T14:13:55.596Z,15.30
2023-01-09T14:16:27.266Z,17.00
2023-01-09T14:19:21.591Z,16.90
2023-01-09T14:21:56.631Z,17.00
2023-01-09T14:24:35.305Z,16.80
2023-01-09T14:27:03.647Z,17.40
2023-01-09T14:29:35.816Z,18.10
2023-01-09T14:32:22.563Z,16.30
2023-01-09T14:35:15.185Z,17.20
2023-01-09T14:37:45.401Z,16.30
2023-01-09T14:40:23.022Z,15.30
2023-01-09T14:42:55.167Z,15.90
2023-01-09T14:45:27.132Z,16.90
2023-01-09T14:48:03.992Z,14.60
2023-01-09T14:50:58.143Z,16.40
2023-01-09T14:53:34.457Z,18.00
2023-01-09T14:56:06.726Z,18.50
2023-01-09T14:58:37.022Z,17.80
2023-01-09T15:01:06.560Z,19.30
2023-01-09T15:03:44.392Z,18.00
2023-01-09T15:06:25.638Z,27.60
2023-01-09T15:09:03.069Z,19.40
2023-01-09T15:11:33.441Z,18.90
2023-01-09T15:14:05.011Z,21.60
2023-01-09T15:16:33.588Z,18.80
2023-01-09T15:19:05.177Z,19.90
2023-01-09T15:21:33.623Z,20.60
2023-01-09T15:24:13.231Z,20.60
2023-01-09T15:26:41.397Z,26.60
2023-01-09T15:29:18.278Z,18.80
2023-01-09T15:31:49.953Z,18.30
2023-01-09T15:34:22.444Z,18.90
2023-01-09T15:36:52.760Z,18.80
2023-01-09T15:39:36.914Z,22.50
2023-01-09T15:42:25.169Z,19.50
2023-01-09T15:44:53.951Z,20.40
2023-01-09T15:47:27.732Z,21.20
2023-01-09T15:49:57.103Z,20.90
2023-01-09T15:54:54.022Z,22.50
2023-01-09T15:57:25.155Z,20.70
2023-01-09T15:59:54.192Z,19.60
2023-01-09T16:02:42.550Z,21.90
2023-01-09T16:05:16.611Z,21.30
2023-01-09T16:07:49.376Z,22.40
2023-01-09T16:10:51.968Z,23.70
2023-01-09T16:13:24.337Z,22.50
2023-01-09T16:15:53.590Z,24.00
2023-01-09T16:21:03.044Z,24.50
2023-01-09T16:23:36.037Z,23.40
2023-01-09T16:26:14.439Z,24.70
2023-01-09T16:28:43.021Z,27.30
2023-01-09T16:31:21.000Z,27.50
2023-01-09T16:33:54.219Z,24.00
2023-01-09T16:36:23.919Z,23.50
2023-01-09T16:38:53.676Z,24.10
2023-01-09T16:41:41.331Z,25.30
2023-01-09T16:44:10.766Z,23.50
2023-01-09T16:46:43.631Z,23.10
2023-01-09T16:49:20.655Z,21.90
2023-01-09T16:51:49.279Z,26.50
2023-01-09T16:54:17.416Z,21.00
2023-01-09T16:56:49.282Z,23.20
2023-01-09T16:59:26.880Z,22.30
2023-01-09T17:01:55.726Z,20.40
2023-01-09T17:04:24.136Z,20.70
2023-01-09T17:06:52.295Z,20.60
2023-01-09T17:09:27.442Z,21.70
2023-01-09T17:11:55.791Z,22.60
2023-01-09T17:14:24.787Z,21.20
2023-01-09T17:16:53.094Z,20.90
2023-01-09T17:19:21.847Z,22.90
2023-01-09T17:21:49.876Z,21.10
2023-01-09T17:24:36.827Z,19.20
2023-01-09T17:27:23.595Z,20.30
2023-01-09T17:29:51.917Z,23.00
2023-01-09T17:32:20.187Z,22.10
2023-01-09T17:34:48.700Z,22.90
2023-01-09T17:37:19.335Z,23.50
2023-01-09T17:39:47.573Z,24.20
2023-01-09T17:42:15.955Z,23.30
2023-01-09T17:44:44.122Z,22.60
2023-01-09T17:47:18.148Z,20.50
2023-01-09T17:49:46.241Z,23.30
2023-01-09T17:52:14.579Z,22.70
2023-01-09T17:54:43.217Z,22.70
2023-01-09T17:57:16.818Z,21.00
2023-01-09T17:59:45.289Z,21.30
2023-01-09T18:02:20.000Z,22.80
2023-01-09T18:04:48.129Z,24.70
2023-01-09T18:07:17.348Z,24.10
2023-01-09T18:09:45.463Z,24.90
2023-01-09T18:12:14.212Z,25.80
2023-01-09T18:14:42.987Z,24.40
2023-01-09T18:17:13.351Z,24.10
2023-01-09T18:19:41.509Z,24.20
2023-01-09T18:22:09.554Z,24.10
2023-01-09T18:24:37.837Z,21.90
2023-01-09T18:27:06.113Z,24.50
2023-01-09T18:29:34.184Z,22.40
2023-01-09T18:32:02.383Z,24.20
2023-01-09T18:34:30.479Z,23.20
2023-01-09T18:36:58.701Z,22.70
2023-01-09T18:39:26.981Z,19.40
2023-01-09T18:41:55.170Z,22.80
2023-01-09T18:44:23.676Z,21.90
2023-01-09T18:46:51.799Z,22.60
2023-01-09T18:49:19.907Z,21.80
2023-01-09T18:51:48.233Z,21.60
2023-01-09T18:54:16.347Z,20.50
2023-01-09T18:56:44.387Z,21.00
2023-01-09T18:59:12.467Z,22.80
2023-01-09T19:01:40.829Z,23.00
2023-01-09T19:04:08.961Z,20.70
2023-01-09T19:06:37.826Z,20.40
2023-01-09T19:09:06.861Z,19.70
2023-01-09T19:11:35.057Z,20.20
2023-01-09T19:14:03.469Z,20.20
2023-01-09T19:16:31.694Z,19.80
2023-01-09T19:19:02.140Z,20.00
2023-01-09T19:21:30.624Z,20.20
2023-01-09T19:23:59.021Z,21.40
2023-01-09T19:26:29.010Z,20.10
2023-01-09T19:29:00.775Z,20.40
2023-01-09T19:31:29.201Z,22.70
2023-01-09T19:33:58.800Z,21.80
2023-01-09T19:36:28.415Z,23.40
2023-01-09T19:38:58.005Z,23.00
2023-01-09T19:41:27.479Z,22.60
2023-01-09T19:43:55.718Z,21.80
2023-01-09T19:46:25.838Z,22.20
2023-01-09T19:48:54.330Z,23.30
2023-01-09T19:51:22.894Z,23.30
2023-01-09T19:56:31.362Z,23.50
2023-01-09T19:59:02.254Z,23.60
2023-01-09T20:01:39.550Z,23.60
2023-01-09T20:04:13.584Z,25.10
2023-01-09T20:06:45.413Z,23.90
2023-01-09T20:09:17.312Z,21.30
2023-01-09T20:11:47.496Z,21.20
2023-01-09T20:14:19.169Z,18.30
2023-01-09T20:16:48.873Z,19.90
2023-01-09T20:21:46.577Z,17.40
2023-01-09T20:26:49.673Z,17.80
2023-01-09T20:29:18.424Z,16.90
2023-01-09T20:31:47.047Z,15.90
2023-01-09T20:34:15.588Z,17.00
2023-01-09T20:36:43.927Z,16.60
2023-01-09T20:39:12.509Z,16.80
2023-01-09T20:41:40.975Z,16.60
2023-01-09T20:44:14.158Z,15.60
2023-01-09T20:46:48.156Z,16.70
2023-01-09T20:49:21.035Z,14.00
2023-01-09T20:51:52.935Z,14.60
2023-01-09T20:54:22.442Z,14.50
2023-01-09T20:56:50.990Z,14.80
2023-01-09T20:59:23.139Z,16.00
2023-01-09T21:01:51.637Z,16.40
2023-01-09T21:04:19.931Z,14.90
2023-01-09T21:06:49.992Z,15.40
2023-01-09T21:09:18.924Z,14.70
2023-01-09T21:11:47.099Z,16.10
2023-01-09T21:14:15.267Z,15.10
2023-01-09T21:16:47.912Z,14.60
2023-01-09T21:19:22.854Z,15.30
2023-01-09T21:24:22.002Z,14.90
2023-01-09T21:26:50.168Z,15.80
2023-01-09T21:29:18.344Z,16.50
2023-01-09T21:31:46.479Z,16.10
2023-01-09T21:34:15.820Z,15.10
2023-01-09T21:36:45.200Z,15.00
2023-01-09T21:39:13.478Z,14.60
2023-01-09T21:42:00.136Z,14.90
2023-01-09T21:44:47.099Z,16.00
2023-01-09T21:47:15.175Z,13.40
2023-01-09T21:49:44.604Z,14.30
2023-01-09T21:54:42.150Z,15.00
2023-01-09T21:57:10.955Z,14.90
2023-01-09T21:59:39.111Z,14.70
2023-01-09T22:02:07.179Z,13.70
2023-01-09T22:04:35.256Z,14.80
2023-01-09T22:07:03.524Z,14.70
2023-01-09T22:09:31.542Z,14.00
2023-01-09T22:11:59.500Z,14.20
2023-01-09T22:14:27.547Z,14.00
2023-01-09T22:16:55.703Z,15.60
2023-01-09T22:19:23.695Z,15.40
2023-01-09T22:21:51.848Z,15.50
2023-01-09T22:24:21.749Z,14.70
2023-01-09T22:26:50.015Z,14.50
2023-01-09T22:29:19.035Z,16.30
2023-01-09T22:31:47.986Z,16.00
2023-01-09T22:34:18.552Z,15.40
2023-01-09T22:36:47.414Z,15.80
2023-01-09T22:39:18.362Z,17.10
2023-01-09T22:41:51.983Z,15.00
2023-01-09T22:44:20.264Z,14.80
2023-01-09T22:46:48.511Z,15.10
2023-01-09T22:49:19.572Z,15.90
2023-01-09T22:51:47.644Z,16.00
2023-01-09T22:54:16.062Z,14.00
2023-01-09T22:56:44.181Z,14.40
2023-01-09T22:59:12.412Z,14.60
2023-01-09T23:01:40.657Z,15.50
2023-01-09T23:04:17.974Z,15.30
2023-01-09T23:06:46.213Z,16.40
2023-01-09T23:09:14.980Z,14.90
2023-01-09T23:12:01.687Z,14.90
2023-01-09T23:14:31.945Z,15.30
2023-01-09T23:17:00.209Z,16.10
2023-01-09T23:19:30.741Z,14.70
2023-01-09T23:22:00.929Z,14.60
2023-01-09T23:24:30.108Z,14.80
2023-01-09T23:26:58.382Z,15.70
2023-01-09T23:29:26.766Z,14.60
2023-01-09T23:31:54.953Z,14.70
2023-01-09T23:34:25.714Z,16.00
2023-01-09T23:36:57.425Z,16.20
2023-01-09T23:39:25.724Z,15.30
2023-01-09T23:42:12.737Z,15.50
2023-01-09T23:44:40.837Z,16.30
2023-01-09T23:47:09.285Z,15.30
2023-01-09T23:49:37.607Z,13.70
2023-01-09T23:52:06.794Z,15.50
2023-01-09T23:54:36.470Z,13.30
2023-01-09T23:57:05.153Z,14.00
2023-01-09T23:59:33.745Z,14.50
